GCLP/LPA METAR and TAF weather

Enter ICAO airport designator
Station Type Date Time Source
GCLP METAR 2019/09/20 20:00 UTC NOAA

GCLP 202000Z 02016KT 9999 FEW020 23/19 Q1016 NOSIG


Station Type Date Time Source
GCLP Decoded METAR 2019/09/20 20:00 UTC NOAA

Gran Canaria - Canary Islands, Spain (GCLP) 27-56N 015-23W 47M
Sep 20, 2019 - 04:00 PM EDT / 2019.09.20 2000 UTC
Wind: from the NNE (020 degrees) at 18 MPH (16 KT):0
Visibility: greater than 7 mile(s):0
Sky conditions: mostly clear
Temperature: 73 F (23 C)
Dew Point: 66 F (19 C)
Relative Humidity: 78%
Pressure (altimeter): 30.00 in. Hg (1016 hPa)
ob: GCLP 202000Z 02016KT 9999 FEW020 23/19 Q1016 NOSIG
cycle: 20

Station Type Date Time Source
GCLP TAF 2019/09/20 21:27 UTC NOAA

TAF GCLP 202000Z 2021/2121 35012KT 9999 FEW025 TX27/2113Z TN21/2105Z

Example: see airport list